< < Back
Terminal Aerodrome Forecast


Current Version              Previous Versions:   1  2  3  4  5  6  7  8  9  

Terminal Aerodrome Forecast

061
FTUS44 KOHX 301100
TAFCSV
TAF
KCSV 301139Z 3012/3112 17004KT P6SM BKN250
     FM301800 19006KT P6SM BKN070
     FM302100 18007KT P6SM VCTS OVC050CB
     FM310100 17005KT 4SM TSRA BR OVC025CB
     FM310600 18003KT 3SM BR VCSH BKN030=

Latest METAR

555
SAUS70 KWBC 302200 RRG
MTRCSV
METAR KCSV 302153Z AUTO 17005KT 10SM FEW095 27/19 A3010 RMK AO2 LTG DSNT
E SLP169 T02720194


USA.gov is the U.S. government's official web portal to all federal, state and local government web resources and services.